createdAt,value
2022-09-25T00:01:29.157Z,16.31
2022-09-25T00:03:58.592Z,16.28
2022-09-25T00:06:30.457Z,16.27
2022-09-25T00:08:59.551Z,16.17
2022-09-25T00:11:31.034Z,16.17
2022-09-25T00:14:00.641Z,16.20
2022-09-25T00:16:31.676Z,16.15
2022-09-25T00:19:30.859Z,16.14
2022-09-25T00:21:58.827Z,16.12
2022-09-25T00:24:26.978Z,16.11
2022-09-25T00:26:54.958Z,16.10
2022-09-25T00:29:22.965Z,16.07
2022-09-25T00:31:51.069Z,16.09
2022-09-25T00:34:20.428Z,16.08
2022-09-25T00:36:48.391Z,16.04
2022-09-25T00:39:16.393Z,16.02
2022-09-25T00:41:44.605Z,16.04
2022-09-25T00:44:56.352Z,16.03
2022-09-25T00:47:41.301Z,16.08
2022-09-25T00:50:25.863Z,16.08
2022-09-25T00:52:57.441Z,16.10
2022-09-25T00:55:25.598Z,16.16
2022-09-25T00:57:57.541Z,16.08
2022-09-25T01:00:25.847Z,16.14
2022-09-25T01:02:56.086Z,16.12
2022-09-25T01:05:30.249Z,16.10
2022-09-25T01:08:02.208Z,16.13
2022-09-25T01:10:30.776Z,16.14
2022-09-25T01:13:01.217Z,16.17
2022-09-25T01:15:39.301Z,16.15
2022-09-25T01:18:26.174Z,16.14
2022-09-25T01:21:11.195Z,16.10
2022-09-25T01:24:11.418Z,16.12
2022-09-25T01:27:24.844Z,16.10
2022-09-25T01:30:02.366Z,16.08
2022-09-25T01:32:38.914Z,16.09
2022-09-25T01:35:16.120Z,16.02
2022-09-25T01:37:49.907Z,15.96
2022-09-25T01:40:26.089Z,15.92
2022-09-25T01:43:00.910Z,15.99
2022-09-25T01:45:37.539Z,15.99
2022-09-25T01:48:09.084Z,15.95
2022-09-25T01:50:45.482Z,15.95
2022-09-25T01:53:19.175Z,16.00
2022-09-25T01:55:51.926Z,15.98
2022-09-25T01:58:27.251Z,15.97
2022-09-25T02:01:02.030Z,15.94
2022-09-25T02:03:36.703Z,15.93
2022-09-25T02:06:10.214Z,15.88
2022-09-25T02:08:44.083Z,15.92
2022-09-25T02:11:14.205Z,15.94
2022-09-25T02:13:51.264Z,15.94
2022-09-25T02:16:26.793Z,15.91
2022-09-25T02:19:12.917Z,15.90
2022-09-25T02:21:50.172Z,15.95
2022-09-25T02:24:22.947Z,15.92
2022-09-25T02:26:52.346Z,15.92
2022-09-25T02:29:21.507Z,15.92
2022-09-25T02:31:58.387Z,15.88
2022-09-25T02:34:27.528Z,15.86
2022-09-25T02:36:55.655Z,15.88
2022-09-25T02:39:28.420Z,15.86
2022-09-25T02:42:20.987Z,15.91
2022-09-25T02:45:09.060Z,15.89
2022-09-25T02:47:51.992Z,15.89
2022-09-25T02:50:28.082Z,15.92
2022-09-25T02:56:33.721Z,15.86
2022-09-25T02:59:06.860Z,15.84
2022-09-25T03:01:38.472Z,15.81
2022-09-25T03:04:08.512Z,15.79
2022-09-25T03:06:38.863Z,15.79
2022-09-25T03:09:09.917Z,15.80
2022-09-25T03:11:43.497Z,15.76
2022-09-25T03:14:11.884Z,15.76
2022-09-25T03:16:46.121Z,15.77
2022-09-25T03:19:16.096Z,15.83
2022-09-25T03:21:44.103Z,15.80
2022-09-25T03:24:12.288Z,15.77
2022-09-25T03:26:41.437Z,15.77
2022-09-25T03:29:09.913Z,15.75
2022-09-25T03:31:38.359Z,15.78
2022-09-25T03:34:06.514Z,15.71
2022-09-25T03:36:36.310Z,15.82
2022-09-25T03:39:05.972Z,15.80
2022-09-25T03:41:35.715Z,15.81
2022-09-25T03:44:04.866Z,15.86
2022-09-25T03:46:36.394Z,15.88
2022-09-25T03:49:05.007Z,15.83
2022-09-25T03:51:35.137Z,15.89
2022-09-25T03:54:04.128Z,15.83
2022-09-25T03:56:32.640Z,15.86
2022-09-25T03:59:00.944Z,15.81
2022-09-25T04:01:29.819Z,15.85
2022-09-25T04:03:58.272Z,15.79
2022-09-25T04:06:27.401Z,15.83
2022-09-25T04:08:56.699Z,15.78
2022-09-25T04:11:25.628Z,15.78
2022-09-25T04:13:53.996Z,15.77
2022-09-25T04:16:22.444Z,15.71
2022-09-25T04:18:51.232Z,15.78
2022-09-25T04:21:19.309Z,15.77
2022-09-25T04:24:07.549Z,15.77
2022-09-25T04:26:36.956Z,15.74
2022-09-25T04:29:05.384Z,15.74
2022-09-25T04:31:34.378Z,15.73
2022-09-25T04:34:03.022Z,15.73
2022-09-25T04:36:31.004Z,15.72
2022-09-25T04:38:59.024Z,15.68
2022-09-25T04:41:27.052Z,15.70
2022-09-25T04:43:56.403Z,15.64
2022-09-25T04:46:24.431Z,15.69
2022-09-25T04:48:52.448Z,15.67
2022-09-25T04:51:20.443Z,15.73
2022-09-25T04:53:48.427Z,15.72
2022-09-25T04:56:16.948Z,15.72
2022-09-25T04:58:47.348Z,15.77
2022-09-25T05:01:19.077Z,15.70
2022-09-25T05:03:49.953Z,15.73
2022-09-25T05:06:18.181Z,15.66
2022-09-25T05:08:49.263Z,15.61
2022-09-25T05:11:17.416Z,15.59
2022-09-25T05:13:47.219Z,15.63
2022-09-25T05:16:16.624Z,15.59
2022-09-25T05:18:44.686Z,15.56
2022-09-25T05:21:12.739Z,15.58
2022-09-25T05:23:40.732Z,15.56
2022-09-25T05:26:11.235Z,15.52
2022-09-25T05:28:39.327Z,15.56
2022-09-25T05:31:07.918Z,15.54
2022-09-25T05:33:37.529Z,15.65
2022-09-25T05:36:08.529Z,15.61
2022-09-25T05:38:39.805Z,15.63
2022-09-25T05:41:10.005Z,15.63
2022-09-25T05:43:42.777Z,15.68
2022-09-25T05:46:11.983Z,15.73
2022-09-25T05:48:41.575Z,15.70
2022-09-25T05:51:10.848Z,15.72
2022-09-25T05:53:39.228Z,15.68
2022-09-25T05:56:07.997Z,15.66
2022-09-25T05:58:36.571Z,15.67
2022-09-25T06:01:07.264Z,15.67
2022-09-25T06:03:36.121Z,15.65
2022-09-25T06:06:06.095Z,15.66
2022-09-25T06:08:35.467Z,15.62
2022-09-25T06:11:05.216Z,15.65
2022-09-25T06:13:35.171Z,15.66
2022-09-25T06:16:03.961Z,15.64
2022-09-25T06:18:33.166Z,15.66
2022-09-25T06:21:03.363Z,15.67
2022-09-25T06:23:32.825Z,15.65
2022-09-25T06:26:05.076Z,15.65
2022-09-25T06:28:33.594Z,15.68
2022-09-25T06:31:03.516Z,15.68
2022-09-25T06:33:32.141Z,15.73
2022-09-25T06:36:00.513Z,15.72
2022-09-25T06:38:28.725Z,15.72
2022-09-25T06:41:00.779Z,15.74
2022-09-25T06:43:30.393Z,15.76
2022-09-25T06:46:03.489Z,15.77
2022-09-25T06:48:32.149Z,15.77
2022-09-25T06:51:01.756Z,15.84
2022-09-25T06:53:29.918Z,15.86
2022-09-25T06:56:00.870Z,15.92
2022-09-25T06:58:31.343Z,15.86
2022-09-25T07:00:59.607Z,15.86
2022-09-25T07:03:44.725Z,15.86
2022-09-25T07:06:15.228Z,15.80
2022-09-25T07:08:44.559Z,15.85
2022-09-25T07:11:16.451Z,15.88
2022-09-25T07:13:44.940Z,15.85
2022-09-25T07:16:15.410Z,15.86
2022-09-25T07:18:44.720Z,15.87
2022-09-25T07:21:14.991Z,15.97
2022-09-25T07:23:43.820Z,16.00
2022-09-25T07:26:17.049Z,15.95
2022-09-25T07:28:45.668Z,15.90
2022-09-25T07:31:17.281Z,15.89
2022-09-25T07:33:46.093Z,15.95
2022-09-25T07:36:16.076Z,16.01
2022-09-25T07:38:46.143Z,16.06
2022-09-25T07:41:15.646Z,16.07
2022-09-25T07:43:43.892Z,16.13
2022-09-25T07:46:12.399Z,16.11
2022-09-25T07:48:40.924Z,16.11
2022-09-25T07:51:12.365Z,16.13
2022-09-25T07:53:41.184Z,16.06
2022-09-25T07:56:11.615Z,16.11
2022-09-25T07:58:41.835Z,16.22
2022-09-25T08:01:13.534Z,16.17
2022-09-25T08:03:41.834Z,16.17
2022-09-25T08:06:13.215Z,16.17
2022-09-25T08:08:42.901Z,16.14
2022-09-25T08:11:13.207Z,16.28
2022-09-25T08:13:43.617Z,16.28
2022-09-25T08:16:14.332Z,16.30
2022-09-25T08:18:46.123Z,16.31
2022-09-25T08:21:16.320Z,16.36
2022-09-25T08:23:48.144Z,16.38
2022-09-25T08:26:16.986Z,16.40
2022-09-25T08:28:46.702Z,16.45
2022-09-25T08:31:15.316Z,16.44
2022-09-25T08:33:46.363Z,16.47
2022-09-25T08:36:15.805Z,16.41
2022-09-25T08:38:44.127Z,16.50
2022-09-25T08:41:19.092Z,16.60
2022-09-25T08:44:00.181Z,16.63
2022-09-25T08:46:59.412Z,16.67
2022-09-25T08:49:35.367Z,16.66
2022-09-25T08:52:08.231Z,16.63
2022-09-25T08:54:39.965Z,16.65
2022-09-25T08:57:19.798Z,16.71
2022-09-25T08:59:59.797Z,16.70
2022-09-25T09:02:40.619Z,16.67
2022-09-25T09:05:20.599Z,16.70
2022-09-25T09:07:55.025Z,16.69
2022-09-25T09:10:32.724Z,16.70
2022-09-25T09:13:09.997Z,16.71
2022-09-25T09:15:45.991Z,16.69
2022-09-25T09:18:23.892Z,16.69
2022-09-25T09:20:55.420Z,16.69
2022-09-25T09:23:28.717Z,16.73
2022-09-25T09:26:37.847Z,16.75
2022-09-25T09:29:26.950Z,16.80
2022-09-25T09:32:19.814Z,16.78
2022-09-25T09:35:06.758Z,16.86
2022-09-25T09:37:59.942Z,16.89
2022-09-25T09:40:49.169Z,16.98
2022-09-25T09:43:39.886Z,17.01
2022-09-25T09:46:43.021Z,17.06
2022-09-25T09:49:43.279Z,16.99
2022-09-25T09:52:18.044Z,16.98
2022-09-25T09:54:52.364Z,16.97
2022-09-25T09:57:26.343Z,17.00
2022-09-25T10:00:04.375Z,16.99
2022-09-25T10:02:43.584Z,16.97
2022-09-25T10:05:24.421Z,17.03
2022-09-25T10:07:53.093Z,16.97
2022-09-25T10:10:23.436Z,16.98
2022-09-25T10:12:54.865Z,16.92
2022-09-25T10:15:30.858Z,16.84
2022-09-25T10:18:02.095Z,16.84
2022-09-25T10:20:45.303Z,16.82
2022-09-25T10:23:32.623Z,16.83
2022-09-25T10:26:00.961Z,16.95
2022-09-25T10:28:34.233Z,16.97
2022-09-25T10:31:08.839Z,16.97
2022-09-25T10:33:38.011Z,16.96
2022-09-25T10:36:08.184Z,16.97
2022-09-25T10:38:41.968Z,16.96
2022-09-25T10:41:13.161Z,17.01
2022-09-25T10:44:01.160Z,16.97
2022-09-25T10:46:49.409Z,16.91
2022-09-25T10:49:38.683Z,16.85
2022-09-25T10:52:11.563Z,16.78
2022-09-25T10:54:44.836Z,16.78
2022-09-25T10:57:34.059Z,16.73
2022-09-25T11:00:03.707Z,16.73
2022-09-25T11:02:40.103Z,16.78
2022-09-25T11:05:16.631Z,16.80
2022-09-25T11:07:52.169Z,16.79
2022-09-25T11:10:22.980Z,16.77
2022-09-25T11:12:52.536Z,16.79
2022-09-25T11:15:24.899Z,16.83
2022-09-25T11:17:55.115Z,16.83
2022-09-25T11:20:29.628Z,16.84
2022-09-25T11:23:58.276Z,16.82
2022-09-25T11:26:33.649Z,16.83
2022-09-25T11:29:11.894Z,16.90
2022-09-25T11:31:46.104Z,16.91
2022-09-25T11:34:28.437Z,16.87
2022-09-25T11:37:06.820Z,16.83
2022-09-25T11:40:05.089Z,16.89
2022-09-25T11:42:39.929Z,16.90
2022-09-25T11:45:19.800Z,16.97
2022-09-25T11:47:55.881Z,17.06
2022-09-25T11:50:38.285Z,17.14
2022-09-25T11:53:19.300Z,17.18
2022-09-25T11:56:19.336Z,17.25
2022-09-25T11:59:02.934Z,17.22
2022-09-25T12:01:37.014Z,17.33
2022-09-25T12:04:32.392Z,17.42
2022-09-25T12:07:18.047Z,17.51
2022-09-25T12:10:04.238Z,17.50
2022-09-25T12:12:41.738Z,17.48
2022-09-25T12:15:23.054Z,17.47
2022-09-25T12:18:08.566Z,17.47
2022-09-25T12:20:49.931Z,17.52
2022-09-25T12:23:29.888Z,17.52
2022-09-25T12:26:15.637Z,17.59
2022-09-25T12:29:06.742Z,17.52
2022-09-25T12:31:52.473Z,17.56
2022-09-25T12:34:38.105Z,17.50
2022-09-25T12:37:23.081Z,17.53
2022-09-25T12:40:00.010Z,17.51
2022-09-25T12:42:40.865Z,17.60
2022-09-25T12:45:22.805Z,17.66
2022-09-25T12:48:15.200Z,17.62
2022-09-25T12:50:52.234Z,17.55
2022-09-25T12:53:31.827Z,17.44
2022-09-25T12:56:15.350Z,17.43
2022-09-25T12:59:06.503Z,17.46
2022-09-25T13:01:47.676Z,17.44
2022-09-25T13:04:44.198Z,17.40
2022-09-25T13:07:20.685Z,17.32
2022-09-25T13:09:51.603Z,17.42
2022-09-25T13:12:33.528Z,17.50
2022-09-25T13:15:09.381Z,17.63
2022-09-25T13:17:39.866Z,17.62
2022-09-25T13:20:55.486Z,17.64
2022-09-25T13:23:35.938Z,17.51
2022-09-25T13:26:13.050Z,17.59
2022-09-25T13:28:50.930Z,17.60
2022-09-25T13:31:25.940Z,17.65
2022-09-25T13:34:03.626Z,17.62
2022-09-25T13:36:40.376Z,17.72
2022-09-25T13:39:40.059Z,17.66
2022-09-25T13:42:16.984Z,17.59
2022-09-25T13:45:09.833Z,17.62
2022-09-25T13:47:54.798Z,17.63
2022-09-25T13:50:45.467Z,17.65
2022-09-25T13:53:29.023Z,17.65
2022-09-25T13:56:47.134Z,17.64
2022-09-25T13:59:37.432Z,17.70
2022-09-25T14:02:42.428Z,17.63
2022-09-25T14:05:18.072Z,17.65
2022-09-25T14:07:49.920Z,17.71
2022-09-25T14:10:18.992Z,17.76
2022-09-25T14:12:50.511Z,17.77
2022-09-25T14:15:30.312Z,17.66
2022-09-25T14:18:00.823Z,17.68
2022-09-25T14:20:39.658Z,17.71
2022-09-25T14:23:15.906Z,17.71
2022-09-25T14:25:46.796Z,17.77
2022-09-25T14:28:25.339Z,17.77
2022-09-25T14:31:23.671Z,17.74
2022-09-25T14:34:17.859Z,17.74
2022-09-25T14:37:01.581Z,17.68
2022-09-25T14:39:42.124Z,17.64
2022-09-25T14:42:52.938Z,17.67
2022-09-25T14:46:02.123Z,17.67
2022-09-25T14:48:37.901Z,17.65
2022-09-25T14:51:10.660Z,17.72
2022-09-25T14:53:44.410Z,17.78
2022-09-25T14:56:15.603Z,17.71
2022-09-25T14:58:49.511Z,17.76
2022-09-25T15:01:27.565Z,17.73
2022-09-25T15:04:01.146Z,17.74
2022-09-25T15:06:31.571Z,17.73
2022-09-25T15:09:01.725Z,17.73
2022-09-25T15:11:42.815Z,17.71
2022-09-25T15:14:12.422Z,17.63
2022-09-25T15:17:00.880Z,17.60
2022-09-25T15:19:34.663Z,17.54
2022-09-25T15:22:03.009Z,17.56
2022-09-25T15:24:35.215Z,17.47
2022-09-25T15:27:07.317Z,17.48
2022-09-25T15:29:38.225Z,17.52
2022-09-25T15:32:07.014Z,17.49
2022-09-25T15:34:35.634Z,17.56
2022-09-25T15:37:25.784Z,17.57
2022-09-25T15:39:54.411Z,17.57
2022-09-25T15:42:24.783Z,17.55
2022-09-25T15:44:54.736Z,17.52
2022-09-25T15:47:54.331Z,17.46
2022-09-25T15:50:26.807Z,17.39
2022-09-25T15:52:58.739Z,17.35
2022-09-25T15:55:29.285Z,17.31
2022-09-25T15:58:13.270Z,17.29
2022-09-25T16:01:13.371Z,17.18
2022-09-25T16:04:07.167Z,17.18
2022-09-25T16:06:43.405Z,17.14
2022-09-25T16:09:22.855Z,17.11
2022-09-25T16:11:51.745Z,17.11
2022-09-25T16:14:29.226Z,17.14
2022-09-25T16:16:59.965Z,17.18
2022-09-25T16:19:35.051Z,17.15
2022-09-25T16:22:23.788Z,17.14
2022-09-25T16:24:54.746Z,17.15
2022-09-25T16:27:28.777Z,17.12
2022-09-25T16:30:03.678Z,17.02
2022-09-25T16:32:32.818Z,17.04
2022-09-25T16:35:03.630Z,16.95
2022-09-25T16:37:35.895Z,17.01
2022-09-25T16:40:33.424Z,16.93
2022-09-25T16:43:02.400Z,16.90
2022-09-25T16:45:34.407Z,16.88
2022-09-25T16:48:29.233Z,16.85
2022-09-25T16:51:01.067Z,16.86
2022-09-25T16:53:29.363Z,16.85
2022-09-25T16:55:57.942Z,16.84
2022-09-25T16:58:26.783Z,16.83
2022-09-25T17:00:56.904Z,16.82
2022-09-25T17:03:25.068Z,16.81
2022-09-25T17:05:53.032Z,16.79
2022-09-25T17:08:24.934Z,16.74
2022-09-25T17:10:53.813Z,16.75
2022-09-25T17:13:30.725Z,16.75
2022-09-25T17:16:00.097Z,16.69
2022-09-25T17:18:28.244Z,16.71
2022-09-25T17:20:57.672Z,16.66
2022-09-25T17:23:27.163Z,16.65
2022-09-25T17:26:00.820Z,16.67
2022-09-25T17:28:29.458Z,16.65
2022-09-25T17:31:00.406Z,16.64
2022-09-25T17:33:30.278Z,16.63
2022-09-25T17:36:03.468Z,16.61
2022-09-25T17:38:33.780Z,16.63
2022-09-25T17:41:05.826Z,16.59
2022-09-25T17:43:34.577Z,16.57
2022-09-25T17:46:04.990Z,16.55
2022-09-25T17:48:34.025Z,16.53
2022-09-25T17:51:04.510Z,16.51
2022-09-25T17:53:34.566Z,16.44
2022-09-25T17:56:03.069Z,16.43
2022-09-25T17:58:32.844Z,16.48
2022-09-25T18:01:06.598Z,16.42
2022-09-25T18:03:34.682Z,16.33
2022-09-25T18:06:02.787Z,16.32
2022-09-25T18:08:31.053Z,16.32
2022-09-25T18:10:59.792Z,16.29
2022-09-25T18:13:27.815Z,16.25
2022-09-25T18:15:58.796Z,16.22
2022-09-25T18:18:49.465Z,16.12
2022-09-25T18:21:35.865Z,16.11
2022-09-25T18:24:04.251Z,16.13
2022-09-25T18:26:32.257Z,16.08
2022-09-25T18:29:00.321Z,16.09
2022-09-25T18:31:28.436Z,16.08
2022-09-25T18:33:57.747Z,16.03
2022-09-25T18:36:25.907Z,16.07
2022-09-25T18:38:54.895Z,16.08
2022-09-25T18:41:23.000Z,16.08
2022-09-25T18:43:51.087Z,16.03
2022-09-25T18:46:19.097Z,16.07
2022-09-25T18:48:47.753Z,16.07
2022-09-25T18:51:17.487Z,16.01
2022-09-25T18:53:50.094Z,15.96
2022-09-25T18:56:18.458Z,15.96
2022-09-25T18:58:47.885Z,15.97
2022-09-25T19:01:16.138Z,15.97
2022-09-25T19:03:44.792Z,15.92
2022-09-25T19:06:12.751Z,15.90
2022-09-25T19:08:42.058Z,15.83
2022-09-25T19:11:14.988Z,15.87
2022-09-25T19:13:43.130Z,15.88
2022-09-25T19:16:12.961Z,15.95
2022-09-25T19:18:42.838Z,15.90
2022-09-25T19:21:15.910Z,15.86
2022-09-25T19:23:47.686Z,15.90
2022-09-25T19:26:20.849Z,15.93
2022-09-25T19:28:49.336Z,15.85
2022-09-25T19:31:20.516Z,15.90
2022-09-25T19:33:48.914Z,15.81
2022-09-25T19:36:20.771Z,15.89
2022-09-25T19:38:50.122Z,15.87
2022-09-25T19:41:21.798Z,15.87
2022-09-25T19:43:49.909Z,15.84
2022-09-25T19:46:23.947Z,15.85
2022-09-25T19:48:52.189Z,15.80
2022-09-25T19:51:23.911Z,15.75
2022-09-25T19:53:54.568Z,15.76
2022-09-25T19:56:22.640Z,15.81
2022-09-25T19:58:51.744Z,15.78
2022-09-25T20:01:24.153Z,15.83
2022-09-25T20:03:52.951Z,15.83
2022-09-25T20:06:20.978Z,15.84
2022-09-25T20:08:49.472Z,15.85
2022-09-25T20:11:22.112Z,15.85
2022-09-25T20:13:52.245Z,15.80
2022-09-25T20:16:24.984Z,15.82
2022-09-25T20:18:57.555Z,15.78
2022-09-25T20:21:27.046Z,15.87
2022-09-25T20:23:57.753Z,15.83
2022-09-25T20:26:28.557Z,15.81
2022-09-25T20:28:59.937Z,15.82
2022-09-25T20:31:30.999Z,15.82
2022-09-25T20:33:59.592Z,15.75
2022-09-25T20:36:28.170Z,15.76
2022-09-25T20:38:57.816Z,15.70
2022-09-25T20:41:27.783Z,15.65
2022-09-25T20:43:58.620Z,15.67
2022-09-25T20:46:29.808Z,15.59
2022-09-25T20:48:59.198Z,15.62
2022-09-25T20:51:29.665Z,15.68
2022-09-25T20:54:00.579Z,15.72
2022-09-25T20:56:32.633Z,15.71
2022-09-25T20:59:02.144Z,15.62
2022-09-25T21:01:34.477Z,15.69
2022-09-25T21:04:05.817Z,15.67
2022-09-25T21:06:36.307Z,15.61
2022-09-25T21:09:08.436Z,15.61
2022-09-25T21:11:40.283Z,15.70
2022-09-25T21:14:11.925Z,15.67
2022-09-25T21:16:40.279Z,15.77
2022-09-25T21:19:09.863Z,15.69
2022-09-25T21:21:37.961Z,15.64
2022-09-25T21:24:08.261Z,15.69
2022-09-25T21:26:37.686Z,15.69
2022-09-25T21:29:08.889Z,15.71
2022-09-25T21:31:43.771Z,15.73
2022-09-25T21:34:18.675Z,15.65
2022-09-25T21:36:47.394Z,15.60
2022-09-25T21:39:16.117Z,15.63
2022-09-25T21:41:46.402Z,15.60
2022-09-25T21:44:16.945Z,15.61
2022-09-25T21:46:45.591Z,15.56
2022-09-25T21:49:19.306Z,15.60
2022-09-25T21:51:49.426Z,15.57
2022-09-25T21:54:18.472Z,15.56
2022-09-25T21:56:49.039Z,15.55
2022-09-25T21:59:17.243Z,15.62
2022-09-25T22:01:45.353Z,15.55
2022-09-25T22:04:15.000Z,15.55
2022-09-25T22:06:46.096Z,15.61
2022-09-25T22:09:17.185Z,15.67
2022-09-25T22:11:47.800Z,15.52
2022-09-25T22:14:16.946Z,15.52
2022-09-25T22:16:47.089Z,15.59
2022-09-25T22:19:18.163Z,15.61
2022-09-25T22:21:48.774Z,15.58
2022-09-25T22:24:17.032Z,15.47
2022-09-25T22:26:49.044Z,15.55
2022-09-25T22:29:18.707Z,15.57
2022-09-25T22:31:47.100Z,15.62
2022-09-25T22:34:19.663Z,15.64
2022-09-25T22:36:48.332Z,15.63
2022-09-25T22:39:19.898Z,15.54
2022-09-25T22:41:52.496Z,15.43
2022-09-25T22:44:21.120Z,15.51
2022-09-25T22:46:49.935Z,15.47
2022-09-25T22:49:18.203Z,15.57
2022-09-25T22:51:46.461Z,15.56
2022-09-25T22:54:15.729Z,15.53
2022-09-25T22:56:44.747Z,15.50
2022-09-25T22:59:17.997Z,15.54
2022-09-25T23:01:50.063Z,15.56
2022-09-25T23:04:21.007Z,15.55
2022-09-25T23:06:49.976Z,15.51
2022-09-25T23:09:21.236Z,15.56
2022-09-25T23:11:49.946Z,15.59
2022-09-25T23:14:22.195Z,15.50
2022-09-25T23:16:52.739Z,15.49
2022-09-25T23:19:22.176Z,15.51
2022-09-25T23:21:52.660Z,15.39
2022-09-25T23:24:23.094Z,15.39
2022-09-25T23:26:51.764Z,15.31
2022-09-25T23:29:22.697Z,15.30
2022-09-25T23:31:51.598Z,15.29
2022-09-25T23:34:20.298Z,15.28
2022-09-25T23:36:48.306Z,15.24
2022-09-25T23:39:19.114Z,15.26
2022-09-25T23:41:47.704Z,15.24
2022-09-25T23:44:15.762Z,15.19
2022-09-25T23:46:45.191Z,15.18
2022-09-25T23:49:14.057Z,15.25
2022-09-25T23:51:42.235Z,15.21
2022-09-25T23:54:12.144Z,15.17
2022-09-25T23:56:41.106Z,15.12
2022-09-25T23:59:11.799Z,15.11
